• Join FlightAware (Why Join?)
  • Login
  • US Flag 
10:29PM EDT


 

Airport Tracker/Info


-or-


 

Live Flight TrackerFlight Track Log ✈ FIV685 ✈ 20-Apr-2013 ✈ KBWI - KPSP

Flight Track Log - Related Links

Times and Time Zones

All times are in EDT time to prevent confusion due to time zone crossing. See the FIV685 flight status page for this flight to view local times or setup timezone preferences in your user account.

Time Position Orientation Groundspeed Altitude Reporting Facility
EDT Latitude Longitude Course Direction KTS MPH feet Rate Location/Type
10:06PM 39.2000 -76.7500 258° West 211 243 4,900  Level Potomac TRACON
10:07PM 39.2000 -76.8167 270° West 238 274 8,400 3,900 Climbing Potomac TRACON
10:08PM 39.2000 -76.9167 270° West 256 295 12,400 2,820 Climbing Potomac TRACON
10:10PM 39.1875 -77.1019 265° West 300 345 16,500 1,920 Climbing Washington Center
10:11PM 39.0263 -77.3755 258° West  Level FlightAware Approximate
10:11PM 39.1383 -77.1919 235° Southwest 300 345 17,900  Level Washington Center
10:12PM 39.1075 -77.3008 250° West 311 358 20,700 2,520 Climbing Washington Center
10:13PM 39.0769 -77.4072 250° West 316 364 23,000 1,440 Climbing Washington Center
10:14PM 39.0458 -77.5239 251° West 328 377 23,600 1,080 Climbing Washington Center
10:15PM 39.0103 -77.6567 251° West 353 406 25,200 1,380 Climbing Washington Center
10:16PM 38.9772 -77.7653 249° West 366 421 26,400 1,020 Climbing Washington Center
10:17PM 38.9436 -77.8922 251° West 366 421 27,300 1,080 Climbing Washington Center
10:18PM 38.9053 -78.0297 250° West 378 435 28,600 1,260 Climbing Washington Center
10:19PM 38.8694 -78.1539 250° West 378 435 29,900 1,080 Climbing Washington Center
10:20PM 38.8542 -78.2839 261° West 378 435 30,800 960 Climbing Washington Center
10:21PM 38.8531 -78.4225 269° West 378 435 31,900 840 Climbing Washington Center
10:22PM 38.8497 -78.5583 268° West 384 442 32,500 780 Climbing Washington Center
10:23PM 38.8339 -78.6911 261° West 384 442 33,500 1,080 Climbing Washington Center
10:24PM 38.8158 -78.8208 260° West 384 442 34,700 1,020 Climbing Washington Center
10:25PM 38.7958 -78.9478 259° West 373 429 35,600 900 Climbing Washington Center
10:26PM 38.7794 -79.0750 261° West 373 429 36,500 900 Climbing Washington Center
10:27PM 38.7614 -79.1967 259° West 368 423 37,400 780 Climbing Washington Center
10:28PM 38.7472 -79.3156 261° West 373 429 38,100 660 Climbing Washington Center
10:29PM 38.7269 -79.4369 258° West 368 423 38,800 660 Climbing Washington Center
10:30PM 38.7058 -79.5717 259° West 362 417 39,500 600 Climbing Washington Center
10:31PM 38.6872 -79.6903 259° West 351 404 40,000 240 Climbing Washington Center
10:32PM 38.6706 -79.8117 260° West 351 404 40,000  Level Washington Center
10:33PM 38.6381 -79.9972 257° West 362 417 40,000  Level Indianapolis Center
10:34PM 38.6175 -80.1275 259° West 372 428 40,000  Level Indianapolis Center
10:35PM 38.5986 -80.2519 259° West 371 427 40,000  Level Indianapolis Center
10:36PM 38.5778 -80.3794 258° West 376 433 40,000  Level Indianapolis Center
10:37PM 38.5567 -80.5200 259° West 377 434 40,000  Level Indianapolis Center
10:38PM 38.5358 -80.6519 259° West 379 436 40,000  Level Indianapolis Center
10:39PM 38.5136 -80.7828 258° West 377 434 40,000  Level Indianapolis Center
10:40PM 38.5078 -80.9175 267° West 383 441 40,000  Level Indianapolis Center
10:41PM 38.5092 -81.0550 271° West 384 442 40,000  Level Indianapolis Center
10:42PM 38.5114 -81.1928 271° West 387 445 40,000  Level Indianapolis Center
10:43PM 38.5131 -81.3319 271° West 388 447 40,000  Level Indianapolis Center
10:44PM 38.5150 -81.4739 271° West 394 453 40,000  Level Indianapolis Center
10:45PM 38.5172 -81.6150 271° West 391 450 40,000  Level Indianapolis Center
10:46PM 38.5189 -81.7567 271° West 392 451 40,000  Level Indianapolis Center
10:47PM 38.5200 -81.8964 271° West 392 451 40,000  Level Indianapolis Center
10:48PM 38.5211 -82.0361 271° West 392 451 40,000  Level Indianapolis Center
10:49PM 38.5222 -82.1767 271° West 393 452 40,000  Level Indianapolis Center
10:50PM 38.5233 -82.3164 271° West 394 453 40,000  Level Indianapolis Center
10:51PM 38.5239 -82.4558 270° West 393 452 40,000  Level Indianapolis Center
10:52PM 38.5236 -82.6053 270° West 394 453 40,000  Level Indianapolis Center
10:53PM 38.5236 -82.7444 270° West 393 452 40,000  Level Indianapolis Center
10:54PM 38.5239 -82.8842 270° West 394 453 40,000  Level Indianapolis Center
10:55PM 38.5236 -83.0228 270° West 392 451 40,000  Level Indianapolis Center
10:56PM 38.5236 -83.1622 270° West 392 451 40,000  Level Indianapolis Center
10:57PM 38.5233 -83.3011 270° West 391 450 40,000  Level Indianapolis Center
10:58PM 38.5228 -83.4406 270° West 392 451 40,000  Level Indianapolis Center
10:59PM 38.5217 -83.5814 269° West 395 455 40,000  Level Indianapolis Center
11:00PM 38.5211 -83.7206 270° West 393 452 40,000  Level Indianapolis Center
11:01PM 38.5197 -83.8611 269° West 398 458 40,000  Level Indianapolis Center
11:02PM 38.5183 -84.0008 269° West 395 455 40,000  Level Indianapolis Center
11:03PM 38.5172 -84.1422 269° West 398 458 40,000  Level Indianapolis Center
11:04PM 38.5156 -84.2856 269° West 403 464 40,000  Level Indianapolis Center
11:05PM 38.5136 -84.4269 269° West 399 459 40,000  Level Indianapolis Center
11:06PM 38.5108 -84.5697 269° West 402 463 40,000  Level Indianapolis Center
11:07PM 38.5097 -84.7108 269° West 399 459 40,000  Level Indianapolis Center
11:08PM 38.5075 -84.8531 269° West 399 459 40,000  Level Indianapolis Center
11:09PM 38.5053 -84.9942 269° West 397 457 40,000  Level Indianapolis Center
11:10PM 38.5017 -85.1356 268° West 397 457 40,000  Level Indianapolis Center
11:11PM 38.4989 -85.2869 269° West 397 457 40,000  Level Indianapolis Center
11:12PM 38.4958 -85.4292 268° West 398 458 40,000  Level Indianapolis Center
11:13PM 38.4939 -85.5700 269° West 396 456 40,000  Level Indianapolis Center
11:14PM 38.4903 -85.7089 268° West 393 452 40,000  Level Indianapolis Center
11:15PM 38.4867 -85.8467 268° West 387 445 40,000  Level Indianapolis Center
11:16PM 38.4850 -85.9833 269° West 386 444 40,000  Level Indianapolis Center
11:17PM 38.4808 -86.1186 268° West 382 440 40,000  Level Indianapolis Center
11:18PM 38.4767 -86.2547 268° West 382 440 40,000  Level Indianapolis Center
11:19PM 38.4728 -86.3914 268° West 383 441 40,000  Level Indianapolis Center
11:20PM 38.4686 -86.5275 268° West 383 441 40,000  Level Indianapolis Center
11:21PM 38.4644 -86.6622 268° West 381 438 40,000  Level Indianapolis Center
11:22PM 38.4597 -86.7975 267° West 382 440 40,000  Level Indianapolis Center
11:23PM 38.4556 -86.9314 268° West 380 437 40,000  Level Indianapolis Center
11:25PM 38.4514 -87.0650 268° West 383 441 40,000  Level Indianapolis Center
11:26PM 38.4464 -87.1981 267° West 383 441 40,000  Level Indianapolis Center
11:27PM 38.4417 -87.3331 267° West 383 441 40,000  Level Indianapolis Center
11:28PM 38.4358 -87.4692 267° West 385 443 40,000  Level Indianapolis Center
11:29PM 38.4311 -87.6058 268° West 386 444 40,000  Level Indianapolis Center
11:30PM 38.4247 -87.7419 267° West 385 443 40,000  Level Indianapolis Center
11:31PM 38.4189 -87.8789 267° West 385 443 40,000  Level Indianapolis Center
11:32PM 38.4136 -88.0158 267° West 386 444 40,000  Level Indianapolis Center
11:33PM 38.4069 -88.1514 266° West 383 441 40,000  Level Indianapolis Center
11:34PM 38.4008 -88.2858 267° West 381 438 40,000  Level Indianapolis Center
11:35PM 38.3958 -88.4219 267° West 382 440 40,000  Level Indianapolis Center
11:36PM 38.3886 -88.5567 266° West 381 438 40,000  Level Indianapolis Center
11:37PM 38.3814 -88.6925 266° West 382 440 40,000  Level Indianapolis Center
11:38PM 38.3756 -88.8283 267° West 382 440 40,000  Level Indianapolis Center
11:39PM 38.3669 -88.9636 265° West 382 440 40,000  Level Indianapolis Center
11:40PM 38.3600 -89.1231 267° West 379 436 40,000  Level Kansas City Center
11:41PM 38.3531 -89.2575 266° West 381 438 40,000  Level Kansas City Center
11:42PM 38.3450 -89.3931 266° West 383 441 40,000  Level Kansas City Center
11:43PM 38.3383 -89.5278 266° West 384 442 40,000  Level Kansas City Center
11:44PM 38.3308 -89.6633 266° West 384 442 40,000  Level Kansas City Center
11:45PM 38.3225 -89.7989 266° West 385 443 40,000  Level Kansas City Center
11:46PM 38.3153 -89.9342 266° West 383 441 40,000  Level Kansas City Center
11:47PM 38.3069 -90.0708 266° West 385 443 40,000  Level Kansas City Center
11:48PM 38.2983 -90.2053 265° West 383 441 40,000  Level Kansas City Center
11:49PM 38.2897 -90.3422 265° West 387 445 40,000  Level Kansas City Center
11:50PM 38.2806 -90.4811 265° West 387 445 40,000  Level Kansas City Center
11:51PM 38.2714 -90.6183 265° West 387 445 40,000  Level Kansas City Center
11:52PM 38.2619 -90.7556 265° West 388 447 40,000  Level Kansas City Center
11:53PM 38.2528 -90.8919 265° West 387 445 40,000  Level Kansas City Center
11:54PM 38.2433 -91.0289 265° West 388 447 40,000  Level Kansas City Center
11:55PM 38.2336 -91.1656 265° West 388 447 40,000  Level Kansas City Center
11:56PM 38.2222 -91.3008 264° West 387 445 40,000  Level Kansas City Center
11:57PM 38.2131 -91.4433 265° West 390 449 40,000  Level Kansas City Center
11:58PM 38.2031 -91.5800 265° West 389 448 40,000  Level Kansas City Center
11:59PM 38.1944 -91.7178 265° West 391 450 40,000  Level Kansas City Center
12:00AM 38.1833 -91.8536 264° West 389 448 40,000  Level Kansas City Center
12:01AM 38.1725 -91.9914 264° West 392 451 40,000  Level Kansas City Center
12:02AM 38.1628 -92.1214 265° West 389 448 40,000  Level Kansas City Center
12:03AM 38.1514 -92.2586 264° West 391 450 40,000  Level Kansas City Center
12:04AM 38.1394 -92.3978 264° West 395 455 40,000  Level Kansas City Center
12:05AM 38.1286 -92.5353 264° West 394 453 40,000  Level Kansas City Center
12:06AM 38.1186 -92.6733 265° West 394 453 40,000  Level Kansas City Center
12:07AM 38.1075 -92.8092 264° West 391 450 40,000  Level Kansas City Center
12:08AM 38.0956 -92.9469 264° West 391 450 40,000  Level Kansas City Center
12:09AM 38.0828 -93.0869 263° West 395 455 40,000  Level Kansas City Center
12:10AM 38.0731 -93.2272 265° West 398 458 40,000  Level Kansas City Center
12:11AM 38.0594 -93.3678 263° West 400 460 40,000  Level Kansas City Center
12:12AM 38.0469 -93.5075 264° West 399 459 40,000  Level Kansas City Center
12:13AM 38.0347 -93.6472 264° West 398 458 40,000  Level Kansas City Center
12:14AM 38.0206 -93.7881 263° West 401 461 40,000  Level Kansas City Center
12:15AM 38.0083 -93.9283 264° West 400 460 40,000  Level Kansas City Center
12:16AM 37.9953 -94.0689 263° West 400 460 40,000  Level Kansas City Center
12:17AM 37.9806 -94.2150 263° West 399 459 40,000  Level Kansas City Center
12:18AM 37.9672 -94.3503 263° West 401 461 40,000  Level Kansas City Center
12:19AM 37.9517 -94.5053 263° West 399 459 40,000  Level Kansas City Center
12:20AM 37.9372 -94.6406 262° West 402 463 40,000  Level Kansas City Center
12:21AM 37.9236 -94.7764 263° West 404 465 40,000  Level Kansas City Center
12:22AM 37.9106 -94.9092 263° West 400 460 40,000  Level Kansas City Center
12:23AM 37.8947 -95.0642 263° West 398 458 40,000  Level Kansas City Center
12:24AM 37.8800 -95.1986 262° West 393 452 40,000  Level Kansas City Center
12:25AM 37.8653 -95.3375 262° West 396 456 40,000  Level Kansas City Center
12:26AM 37.8500 -95.4739 262° West 394 453 40,000  Level Kansas City Center
12:27AM 37.8353 -95.6111 262° West 394 453 40,000  Level Kansas City Center
12:28AM 37.8208 -95.7475 262° West 394 453 40,000  Level Kansas City Center
12:29AM 37.8042 -95.8914 262° West 406 467 40,000  Level Kansas City Center
12:30AM 37.7889 -96.0283 262° West 398 458 40,000  Level Kansas City Center
12:31AM 37.7764 -96.1464 262° West 395 455 40,000  Level Kansas City Center
12:32AM 37.7614 -96.2844 262° West 396 456 40,000  Level Kansas City Center
12:33AM 37.7447 -96.4225 261° West 397 457 40,000  Level Kansas City Center
12:34AM 37.7289 -96.5600 262° West 396 456 40,000  Level Kansas City Center
12:35AM 37.7125 -96.6983 262° West 398 458 40,000  Level Kansas City Center
12:36AM 37.6961 -96.8367 262° West 398 458 40,000  Level Kansas City Center
12:37AM 37.6800 -96.9742 262° West 397 457 40,000  Level Kansas City Center
12:38AM 37.6633 -97.1125 261° West 398 458 40,000  Level Kansas City Center
12:39AM 37.6461 -97.2503 261° West 397 457 40,000  Level Kansas City Center
12:40AM 37.6292 -97.3875 261° West 396 456 40,000  Level Kansas City Center
12:41AM 37.6114 -97.5261 261° West 397 457 40,000  Level Kansas City Center
12:42AM 37.5939 -97.6642 261° West 396 456 40,000  Level Kansas City Center
12:43AM 37.5769 -97.8033 261° West 398 458 40,000  Level Kansas City Center
12:44AM 37.5581 -97.9419 260° West 398 458 40,000  Level Kansas City Center
12:45AM 37.5406 -98.0794 261° West 396 456 40,000  Level Kansas City Center
12:46AM 37.5214 -98.2181 260° West 397 457 40,000  Level Kansas City Center
12:47AM 37.5025 -98.3547 260° West 396 456 40,000  Level Kansas City Center
12:48AM 37.4839 -98.4928 260° West 398 458 40,000  Level Kansas City Center
12:49AM 37.4656 -98.6319 261° West 400 460 40,000  Level Kansas City Center
12:50AM 37.4461 -98.7714 260° West 403 464 40,000  Level Kansas City Center
12:51AM 37.4275 -98.9100 260° West 402 463 40,000  Level Kansas City Center
12:52AM 37.4081 -99.0489 260° West 404 465 40,000  Level Kansas City Center
12:53AM 37.3875 -99.1889 260° West 405 466 40,000  Level Kansas City Center
12:54AM 37.3694 -99.3286 261° West 405 466 40,000  Level Kansas City Center
12:55AM 37.3458 -99.4822 259° West 404 465 40,000  Level Kansas City Center
12:56AM 37.3267 -99.6139 260° West 402 463 40,000  Level Kansas City Center
12:57AM 37.3072 -99.7475 260° West 404 465 40,000  Level Kansas City Center
12:58AM 37.2850 -99.9017 260° West 402 463 40,000  Level Kansas City Center
12:59AM 37.2653 -100.0331 259° West 401 461 40,000  Level Kansas City Center
01:00AM 37.2489 -100.1428 259° West 400 460 40,000  Level Kansas City Center
01:01AM 37.2269 -100.2969 260° West 401 461 40,000  Level Kansas City Center
01:02AM 37.2039 -100.4494 259° West 398 458 40,000  Level Kansas City Center
01:03AM 37.1839 -100.5814 259° West 399 459 40,000  Level Kansas City Center
01:04AM 37.1636 -100.7131 259° West 400 460 40,000  Level Kansas City Center
01:05AM 37.1431 -100.8458 259° West 401 461 40,000  Level Kansas City Center
01:06AM 37.1183 -101.0006 259° West 403 464 40,000  Level Kansas City Center
01:07AM 37.0978 -101.1319 259° West 402 463 40,000  Level Kansas City Center
01:08AM 37.0772 -101.2656 259° West 406 467 40,000  Level Kansas City Center
01:09AM 37.0561 -101.3942 258° West 399 459 40,000  Level Kansas City Center
01:10AM 37.0425 -101.4811 259° West 397 457 40,000  Level Albuquerque Center
01:11AM 37.0206 -101.6119 258° West 399 459 40,000  Level Albuquerque Center
01:12AM 36.9961 -101.7664 259° West 403 464 40,000  Level Albuquerque Center
01:13AM 36.9750 -101.8978 259° West 404 465 40,000  Level Albuquerque Center
01:14AM 36.9542 -102.0286 259° West 401 461 40,000  Level Albuquerque Center
01:15AM 36.9319 -102.1592 258° West 401 461 40,000  Level Albuquerque Center
01:16AM 36.9058 -102.3114 258° West 401 461 40,000  Level Albuquerque Center
01:17AM 36.8833 -102.4425 258° West 402 463 40,000  Level Albuquerque Center
01:18AM 36.8589 -102.5881 258° West 398 458 40,000  Level Albuquerque Center
01:19AM 36.8367 -102.7172 258° West 397 457 40,000  Level Albuquerque Center
01:20AM 36.8142 -102.8456 258° West 396 456 40,000  Level Albuquerque Center
01:21AM 36.7928 -102.9736 258° West 394 453 40,000  Level Albuquerque Center
01:22AM 36.7650 -103.1231 257° West 395 455 40,000  Level Albuquerque Center
01:23AM 36.7431 -103.2528 258° West 397 457 40,000  Level Albuquerque Center
01:24AM 36.7197 -103.3822 257° West 399 459 40,000  Level Albuquerque Center
01:25AM 36.6958 -103.5114 257° West 398 458 40,000  Level Albuquerque Center
01:26AM 36.6692 -103.6625 258° West 398 458 40,000  Level Albuquerque Center
01:27AM 36.6456 -103.7919 257° West 398 458 40,000  Level Albuquerque Center
01:28AM 36.6211 -103.9264 257° West 396 456 40,000  Level Albuquerque Center
01:29AM 36.5964 -104.0603 257° West 395 455 40,000  Level Albuquerque Center
01:30AM 36.5708 -104.1919 256° West 393 452 40,000  Level Albuquerque Center
01:31AM 36.5461 -104.3256 257° West 394 453 40,000  Level Albuquerque Center
01:32AM 36.5206 -104.4594 257° West 395 455 40,000  Level Albuquerque Center
01:33AM 36.4950 -104.5947 257° West 397 457 40,000  Level Albuquerque Center
01:34AM 36.4694 -104.7281 257° West 397 457 40,000  Level Albuquerque Center
01:35AM 36.4444 -104.8606 257° West 394 453 40,000  Level Albuquerque Center
01:36AM 36.4189 -104.9922 256° West 392 451 40,000  Level Albuquerque Center
01:37AM 36.3919 -105.1247 256° West 395 455 40,000  Level Albuquerque Center
01:38AM 36.3675 -105.2528 257° West 384 442 40,000  Level Albuquerque Center
01:39AM 36.3425 -105.3833 257° West 385 443 40,000  Level Albuquerque Center
01:40AM 36.3158 -105.5131 256° West 386 444 40,000  Level Albuquerque Center
01:41AM 36.2939 -105.6289 257° West 387 445 40,000  Level Albuquerque Center
01:42AM 36.2669 -105.7581 256° West 387 445 40,000  Level Albuquerque Center
01:43AM 36.2419 -105.8881 257° West 390 449 40,000  Level Albuquerque Center
01:44AM 36.2158 -106.0183 256° West 390 449 40,000  Level Albuquerque Center
01:45AM 36.1886 -106.1453 255° West 386 444 40,000  Level Albuquerque Center
01:46AM 36.1631 -106.2750 256° West 388 447 40,000  Level Albuquerque Center
01:47AM 36.1375 -106.4031 256° West 385 443 40,000  Level Albuquerque Center
01:48AM 36.1100 -106.5275 255° West 380 437 40,000  Level Albuquerque Center
01:49AM 36.0842 -106.6567 256° West 386 444 40,000  Level Albuquerque Center
01:50AM 36.0567 -106.7856 255° West 388 447 40,000  Level Albuquerque Center
01:51AM 36.0297 -106.9147 256° West 390 449 40,000  Level Albuquerque Center
01:52AM 36.0022 -107.0436 255° West 390 449 40,000  Level Albuquerque Center
01:53AM 35.9703 -107.1975 256° West 390 449 40,000  Level Albuquerque Center
01:54AM 35.9422 -107.3211 254° West 391 450 40,000  Level Albuquerque Center
01:55AM 35.9158 -107.4467 255° West 393 452 40,000  Level Albuquerque Center
01:56AM 35.8889 -107.5706 255° West 392 451 40,000  Level Albuquerque Center
01:57AM 35.8569 -107.7164 255° West 393 452 40,000  Level Albuquerque Center
01:58AM 35.8294 -107.8408 255° West 393 452 40,000  Level Albuquerque Center
01:59AM 35.8025 -107.9642 255° West 391 450 40,000  Level Albuquerque Center
02:00AM 35.7706 -108.1078 255° West 389 448 40,000  Level Albuquerque Center
02:01AM 35.7431 -108.2319 255° West 391 450 40,000  Level Albuquerque Center
02:02AM 35.7150 -108.3547 254° West 390 449 40,000  Level Albuquerque Center
02:03AM 35.6875 -108.4783 255° West 389 448 40,000  Level Albuquerque Center
02:04AM 35.6553 -108.6214 255° West 387 445 40,000  Level Albuquerque Center
02:05AM 35.6272 -108.7428 254° West 385 443 40,000  Level Albuquerque Center
02:06AM 35.5994 -108.8633 254° West 382 440 40,000  Level Albuquerque Center
02:07AM 35.5725 -108.9819 254° West 379 436 40,000  Level Albuquerque Center
02:08AM 35.5406 -109.1200 254° West 375 432 40,000  Level Albuquerque Center
02:09AM 35.5125 -109.2397 254° West 378 435 40,000  Level Albuquerque Center
02:10AM 35.4850 -109.3583 254° West 378 435 40,000  Level Albuquerque Center
02:11AM 35.4567 -109.4772 254° West 378 435 40,000  Level Albuquerque Center
02:12AM 35.4244 -109.6178 254° West 380 437 40,000  Level Albuquerque Center
02:13AM 35.3961 -109.7347 253° West 376 433 40,000  Level Albuquerque Center
02:14AM 35.3667 -109.8544 253° West 382 440 40,000  Level Albuquerque Center
02:15AM 35.3342 -109.9919 254° West 379 436 40,000  Level Albuquerque Center
02:16AM 35.3033 -110.1106 252° West 381 438 40,000  Level Albuquerque Center
02:17AM 35.2744 -110.2281 253° West 379 436 40,000  Level Albuquerque Center
02:18AM 35.2450 -110.3467 253° West 380 437 40,000  Level Albuquerque Center
02:19AM 35.2122 -110.4847 254° West 379 436 40,000  Level Albuquerque Center
02:20AM 35.1808 -110.6022 252° West 379 436 40,000  Level Albuquerque Center
02:21AM 35.1506 -110.7183 252° West 376 433 40,000  Level Albuquerque Center
02:22AM 35.1172 -110.8567 254° West 379 436 40,000  Level Albuquerque Center
02:23AM 35.0869 -110.9739 253° West 380 437 40,000  Level Albuquerque Center
02:24AM 35.0578 -111.1025 255° West 388 447 40,000  Level Albuquerque Center
02:25AM 35.0272 -111.2292 254° West 392 451 40,000  Level Albuquerque Center
02:26AM 34.9950 -111.3508 252° West 383 441 40,000  Level Albuquerque Center
02:27AM 34.9639 -111.4736 253° West 382 440 40,000  Level Albuquerque Center
02:28AM 34.9317 -111.5969 252° West 382 440 40,000  Level Albuquerque Center
02:29AM 34.8994 -111.7236 253° West 384 442 40,000  Level Albuquerque Center
02:30AM 34.8739 -111.8228 253° West 385 443 40,000  Level Albuquerque Center
02:31AM 34.8356 -111.9703 252° West 383 441 40,000  Level Albuquerque Center
02:32AM 34.8036 -112.0931 252° West 383 441 40,000  Level Albuquerque Center
02:33AM 34.7717 -112.2156 252° West 381 438 40,000  Level Albuquerque Center
02:34AM 34.7406 -112.3325 252° West 380 437 40,000  Level Albuquerque Center
02:35AM 34.7078 -112.4603 253° West 381 438 40,000  Level Albuquerque Center
02:36AM 34.6753 -112.5831 252° West 382 440 40,000  Level Albuquerque Center
02:37AM 34.6436 -112.7047 252° West 380 437 40,000  Level Albuquerque Center
02:38AM 34.6103 -112.8275 252° West 382 440 40,000  Level Albuquerque Center
02:39AM 34.5783 -112.9508 253° West 383 441 40,000  Level Albuquerque Center
02:40AM 34.5447 -113.0747 252° West 386 444 40,000  Level Albuquerque Center
02:41AM 34.5108 -113.1989 252° West 388 447 40,000  Level Albuquerque Center
02:42AM 34.4775 -113.3222 252° West 387 445 40,000  Level Albuquerque Center
02:43AM 34.4447 -113.4469 252° West 387 445 40,000  Level Albuquerque Center
02:44AM 34.4067 -113.5850 252° West 386 444 40,000  Level Albuquerque Center
02:45AM 34.3761 -113.6917 251° West 387 445 40,000  Level Albuquerque Center
02:46AM 34.3464 -113.8169 254° West 389 448 40,000  Level Albuquerque Center
02:47AM 34.3192 -113.9422 255° West 387 445 40,000  Level Albuquerque Center
02:48AM 34.2933 -114.0669 256° West 384 442 40,000  Level Albuquerque Center
02:49AM 34.2656 -114.1917 255° West 384 442 40,000 -300 Level Albuquerque Center
02:50AM 34.2381 -114.3158 255° West 383 441 39,400 -1,140 Descending Albuquerque Center
02:51AM 34.2106 -114.4497 256° West 385 443 37,800 -1,620 Descending Los Angeles Center
02:52AM 34.1808 -114.5775 254° West 391 450 36,200 -1,500 Descending Los Angeles Center
02:53AM 34.1508 -114.7131 255° West 414 476 34,800 -1,440 Descending Los Angeles Center
02:54AM 34.1211 -114.8492 255° West 421 484 33,300 -1,500 Descending Los Angeles Center
02:55AM 34.0906 -114.9861 255° West 423 487 31,800 -1,500 Descending Los Angeles Center
02:56AM 34.0589 -115.1208 254° West 419 482 30,300 -1,500 Descending Los Angeles Center
02:57AM 34.0275 -115.2594 255° West 429 494 28,800 -1,500 Descending Los Angeles Center
02:58AM 33.9961 -115.3967 255° West 426 490 27,300 -1,500 Descending Los Angeles Center
02:59AM 33.9650 -115.5314 254° West 419 482 25,800 -1,680 Descending Los Angeles Center
03:00AM 33.9286 -115.6911 255° West 415 478 24,000 -1,680 Descending Los Angeles Center
03:01AM 33.9108 -115.8225 261° West 403 464 22,500 -1,500 Descending Los Angeles Center
03:02AM 33.9025 -115.9475 265° West 382 440 21,000 -2,220 Descending Los Angeles Center
03:03AM 33.8931 -116.0672 265° West 366 421 18,100 -3,180 Descending Los Angeles Center
03:04AM 33.8164 -116.1214 210° Southwest 334 384 14,700 -3,360 Descending Los Angeles Center
03:05AM 33.7311 -116.1600 201° Southwest 330 380 11,400 -2,940 Descending Los Angeles Center
03:06AM 33.6650 -116.2108 213° Southwest 310 357 8,800 -2,580 Descending Los Angeles Center
03:07AM 33.6731 -116.3000 276° West 287 330 6,300 -1,500 Descending Los Angeles Center
03:08AM 33.6861 -116.3858 280° West 283 326 5,800 -540 Descending Los Angeles Center